METAR Data
IDs: Format: Raw Decoded Include TAF

Data at: 0733 UTC 18 Sep 2021

PAWD 180653Z AUTO 02010G17KT 10SM CLR 11/04 A2941 RMK AO2 SLP960 T01060039 TSNO